createdAt,value
2022-12-20T00:02:20.994Z,52.67
2022-12-20T00:07:22.767Z,49.90
2022-12-20T00:12:24.523Z,49.38
2022-12-20T00:17:26.100Z,54.05
2022-12-20T00:22:28.039Z,50.50
2022-12-20T00:27:29.890Z,53.10
2022-12-20T00:32:31.581Z,47.72
2022-12-20T00:37:33.527Z,53.13
2022-12-20T00:42:35.193Z,54.53
2022-12-20T00:47:36.748Z,48.72
2022-12-20T00:52:38.281Z,52.45
2022-12-20T00:57:40.200Z,49.95
2022-12-20T01:02:41.919Z,49.10
2022-12-20T01:07:43.583Z,49.72
2022-12-20T01:12:45.289Z,53.40
2022-12-20T01:17:47.397Z,53.65
2022-12-20T01:22:49.038Z,56.00
2022-12-20T01:27:50.720Z,50.60
2022-12-20T01:32:52.495Z,51.00
2022-12-20T01:37:54.485Z,52.85
2022-12-20T01:42:56.022Z,55.38
2022-12-20T01:47:59.849Z,52.42
2022-12-20T01:53:04.249Z,50.85
2022-12-20T01:58:09.731Z,50.22
2022-12-20T02:03:13.934Z,50.72
2022-12-20T02:08:18.381Z,50.83
2022-12-20T02:13:39.226Z,54.30
2022-12-20T02:19:00.111Z,49.95
2022-12-20T02:24:22.167Z,49.50
2022-12-20T02:30:01.423Z,49.95
2022-12-20T02:35:04.686Z,53.08
2022-12-20T02:40:07.144Z,54.15
2022-12-20T02:45:17.189Z,52.22
2022-12-20T02:50:45.814Z,49.50
2022-12-20T02:56:02.115Z,54.50
2022-12-20T03:01:12.214Z,50.60
2022-12-20T03:06:14.026Z,52.08
2022-12-20T03:11:16.173Z,51.85
2022-12-20T03:16:18.071Z,52.20
2022-12-20T03:21:19.699Z,53.35
2022-12-20T03:26:22.780Z,54.45
2022-12-20T03:31:29.966Z,50.63
2022-12-20T03:36:32.469Z,55.53
2022-12-20T03:41:37.544Z,54.05
2022-12-20T03:46:40.283Z,50.92
2022-12-20T03:51:42.311Z,56.50
2022-12-20T03:56:44.244Z,54.28
2022-12-20T04:01:46.074Z,54.28
2022-12-20T04:06:48.367Z,52.97
2022-12-20T04:11:50.813Z,81.20
2022-12-20T04:16:52.461Z,58.90
2022-12-20T04:22:04.625Z,53.42
2022-12-20T04:27:19.486Z,55.10
2022-12-20T04:32:21.719Z,58.33
2022-12-20T04:37:24.202Z,47.63
2022-12-20T04:42:28.504Z,54.40
2022-12-20T04:47:31.342Z,57.13
2022-12-20T04:52:51.883Z,55.67
2022-12-20T04:57:53.620Z,55.03
2022-12-20T05:02:55.546Z,57.75
2022-12-20T05:07:59.585Z,53.28
2022-12-20T05:13:08.956Z,52.55
2022-12-20T05:18:15.023Z,55.38
2022-12-20T05:23:42.960Z,56.42
2022-12-20T05:28:49.658Z,57.03
2022-12-20T05:33:51.512Z,58.75
2022-12-20T05:38:56.783Z,53.70
2022-12-20T05:44:04.608Z,53.05
2022-12-20T05:49:09.300Z,55.97
2022-12-20T05:54:11.452Z,55.30
2022-12-20T05:59:19.552Z,51.22
2022-12-20T06:04:22.075Z,59.47
2022-12-20T06:09:23.966Z,53.78
2022-12-20T06:14:35.279Z,55.80
2022-12-20T06:19:37.030Z,53.28
2022-12-20T06:24:44.295Z,54.83
2022-12-20T06:29:52.106Z,51.00
2022-12-20T06:34:56.807Z,58.63
2022-12-20T06:39:58.584Z,52.40
2022-12-20T06:45:00.320Z,53.00
2022-12-20T06:50:05.521Z,55.63
2022-12-20T06:55:07.813Z,55.08
2022-12-20T07:00:14.013Z,58.08
2022-12-20T07:05:15.605Z,57.83
2022-12-20T07:10:17.661Z,52.50
2022-12-20T07:15:19.258Z,53.70
2022-12-20T07:20:20.802Z,52.40
2022-12-20T07:25:22.454Z,60.97
2022-12-20T07:30:23.985Z,55.03
2022-12-20T07:35:27.760Z,62.30
2022-12-20T07:40:29.787Z,59.33
2022-12-20T07:45:31.430Z,56.83
2022-12-20T07:50:36.018Z,56.80
2022-12-20T07:55:40.491Z,52.88
2022-12-20T08:00:42.824Z,54.63
2022-12-20T08:05:48.944Z,52.90
2022-12-20T08:10:50.935Z,55.00
2022-12-20T08:15:52.525Z,55.40
2022-12-20T08:20:54.068Z,58.65
2022-12-20T08:25:55.696Z,59.53
2022-12-20T08:31:05.468Z,55.03
2022-12-20T08:36:09.933Z,52.90
2022-12-20T08:41:14.630Z,59.15
2022-12-20T08:46:16.279Z,56.58
2022-12-20T08:51:17.950Z,52.00
2022-12-20T08:56:20.165Z,53.92
2022-12-20T09:01:22.897Z,54.60
2022-12-20T09:06:24.691Z,55.30
2022-12-20T09:11:27.429Z,50.28
2022-12-20T09:16:31.446Z,57.75
2022-12-20T09:21:33.954Z,57.25
2022-12-20T09:26:35.851Z,60.83
2022-12-20T09:31:37.644Z,69.72
2022-12-20T09:36:39.449Z,94.80
2022-12-20T09:41:43.162Z,79.95
2022-12-20T09:46:51.600Z,58.03
2022-12-20T09:52:12.294Z,56.40
2022-12-20T09:57:51.944Z,50.67
2022-12-20T10:03:02.035Z,55.75
2022-12-20T10:08:31.348Z,54.15
2022-12-20T10:13:53.700Z,55.25
2022-12-20T10:19:11.668Z,56.38
2022-12-20T10:29:21.532Z,56.08
2022-12-20T10:34:23.703Z,61.65
2022-12-20T10:39:41.498Z,53.22
2022-12-20T10:44:44.188Z,49.75
2022-12-20T10:49:45.838Z,54.08
2022-12-20T10:54:47.744Z,51.53
2022-12-20T10:59:53.989Z,51.17
2022-12-20T11:05:19.248Z,51.38
2022-12-20T11:10:24.496Z,48.75
2022-12-20T11:15:34.684Z,55.05
2022-12-20T11:20:47.446Z,51.35
2022-12-20T11:26:21.080Z,49.50
2022-12-20T11:31:48.641Z,53.92
2022-12-20T11:37:21.384Z,48.95
2022-12-20T11:42:38.417Z,53.33
2022-12-20T11:47:58.238Z,48.97
2022-12-20T11:53:20.798Z,54.92
2022-12-20T11:58:54.415Z,49.92
2022-12-20T12:04:17.672Z,53.97
2022-12-20T12:09:33.424Z,48.72
2022-12-20T12:14:53.271Z,50.85
2022-12-20T12:20:00.928Z,52.70
2022-12-20T12:25:09.007Z,50.45
2022-12-20T12:30:17.339Z,49.50
2022-12-20T12:35:44.041Z,52.85
2022-12-20T12:41:16.469Z,54.85
2022-12-20T12:46:30.200Z,47.88
2022-12-20T12:51:38.174Z,53.78
2022-12-20T12:56:46.237Z,52.05
2022-12-20T13:01:57.013Z,51.72
2022-12-20T13:07:00.139Z,54.83
2022-12-20T13:12:36.412Z,50.30
2022-12-20T13:17:58.707Z,49.03
2022-12-20T13:23:10.336Z,59.40
2022-12-20T13:28:24.045Z,55.25
2022-12-20T13:33:39.231Z,50.33
2022-12-20T13:38:44.837Z,51.17
2022-12-20T13:43:48.321Z,54.33
2022-12-20T13:48:53.532Z,54.33
2022-12-20T13:53:55.043Z,53.33
2022-12-20T13:59:03.165Z,51.72
2022-12-20T14:09:28.668Z,50.22
2022-12-20T14:14:30.226Z,50.30
2022-12-20T14:19:31.729Z,58.35
2022-12-20T14:24:34.454Z,54.75
2022-12-20T14:29:36.071Z,57.03
2022-12-20T14:34:41.910Z,54.97
2022-12-20T14:40:04.321Z,57.83
2022-12-20T14:45:15.933Z,58.63
2022-12-20T14:50:22.328Z,59.05
2022-12-20T14:55:30.384Z,56.30
2022-12-20T15:05:35.761Z,76.10
2022-12-20T15:10:37.910Z,78.72
2022-12-20T15:15:39.987Z,60.70
2022-12-20T15:20:43.139Z,67.28
2022-12-20T15:25:45.830Z,65.28
2022-12-20T15:30:50.043Z,67.55
2022-12-20T15:35:52.545Z,63.13
2022-12-20T15:41:00.250Z,71.80
2022-12-20T15:46:01.813Z,83.07
2022-12-20T15:51:15.683Z,67.50
2022-12-20T15:56:21.695Z,65.63
2022-12-20T16:01:39.769Z,58.92
2022-12-20T16:06:43.499Z,59.45
2022-12-20T16:11:45.093Z,60.90
2022-12-20T16:16:48.808Z,66.72
2022-12-20T16:21:52.094Z,61.90
2022-12-20T16:26:53.568Z,66.88
2022-12-20T16:31:55.140Z,61.92
2022-12-20T16:36:56.873Z,62.63
2022-12-20T16:41:58.399Z,63.40
2022-12-20T16:46:59.953Z,56.80
2022-12-20T16:52:01.509Z,60.83
2022-12-20T16:57:03.007Z,58.08
2022-12-20T17:02:22.305Z,55.75
2022-12-20T17:07:24.307Z,57.65
2022-12-20T17:12:25.809Z,60.58
2022-12-20T17:17:27.323Z,59.92
2022-12-20T17:22:28.897Z,59.70
2022-12-20T17:27:30.510Z,57.78
2022-12-20T17:32:32.126Z,61.00
2022-12-20T17:37:33.825Z,57.13
2022-12-20T17:42:35.296Z,58.92
2022-12-20T17:47:36.771Z,59.17
2022-12-20T17:52:39.413Z,58.83
2022-12-20T17:57:40.926Z,57.10
2022-12-20T18:02:42.496Z,65.30
2022-12-20T18:07:48.854Z,62.60
2022-12-20T18:12:51.062Z,53.42
2022-12-20T18:17:52.547Z,57.28
2022-12-20T18:22:54.045Z,61.28
2022-12-20T18:27:55.564Z,55.75
2022-12-20T18:32:57.296Z,59.42
2022-12-20T18:37:58.834Z,64.22
2022-12-20T18:43:05.838Z,59.67
2022-12-20T18:48:07.926Z,54.35
2022-12-20T18:53:09.849Z,57.88
2022-12-20T18:58:12.108Z,65.10
2022-12-20T19:03:16.162Z,63.15
2022-12-20T19:08:19.020Z,59.70
2022-12-20T19:13:21.192Z,59.42
2022-12-20T19:18:22.839Z,59.47
2022-12-20T19:23:24.574Z,61.55
2022-12-20T19:28:26.128Z,60.58
2022-12-20T19:33:27.601Z,65.03
2022-12-20T19:38:29.113Z,59.35
2022-12-20T19:43:31.280Z,60.05
2022-12-20T19:48:33.667Z,57.53
2022-12-20T19:53:35.470Z,60.78
2022-12-20T19:58:38.145Z,63.13
2022-12-20T20:03:39.719Z,57.00
2022-12-20T20:08:42.429Z,56.20
2022-12-20T20:13:44.179Z,59.42
2022-12-20T20:18:46.307Z,61.05
2022-12-20T20:23:50.036Z,59.13
2022-12-20T20:28:52.276Z,58.35
2022-12-20T20:33:53.815Z,53.28
2022-12-20T20:38:55.790Z,61.45
2022-12-20T20:43:57.367Z,59.60
2022-12-20T20:48:59.943Z,64.05
2022-12-20T20:54:01.505Z,63.17
2022-12-20T20:59:08.076Z,65.18
2022-12-20T21:04:10.958Z,55.80
2022-12-20T21:09:12.573Z,61.78
2022-12-20T21:14:14.152Z,61.88
2022-12-20T21:19:16.124Z,67.72
2022-12-20T21:24:18.320Z,61.38
2022-12-20T21:29:20.214Z,61.22
2022-12-20T21:34:21.768Z,65.53
2022-12-20T21:39:23.324Z,59.58
2022-12-20T21:44:24.945Z,55.42
2022-12-20T21:49:27.192Z,58.25
2022-12-20T21:54:28.708Z,60.90
2022-12-20T21:59:30.344Z,65.35
2022-12-20T22:04:32.888Z,68.15
2022-12-20T22:09:34.393Z,67.90
2022-12-20T22:14:35.983Z,61.97
2022-12-20T22:19:38.320Z,67.75
2022-12-20T22:24:39.835Z,58.22
2022-12-20T22:29:41.291Z,55.38
2022-12-20T22:34:42.798Z,58.30
2022-12-20T22:39:44.368Z,62.20
2022-12-20T22:44:45.880Z,65.30
2022-12-20T22:49:47.359Z,57.95
2022-12-20T22:54:48.905Z,57.00
2022-12-20T22:59:50.565Z,58.28
2022-12-20T23:04:52.585Z,64.32
2022-12-20T23:09:54.110Z,63.30
2022-12-20T23:15:14.349Z,58.95
2022-12-20T23:20:34.637Z,61.47
2022-12-20T23:25:36.152Z,86.28
2022-12-20T23:30:37.676Z,58.30
2022-12-20T23:35:39.728Z,64.22
2022-12-20T23:40:41.370Z,67.78
2022-12-20T23:45:42.872Z,70.50
2022-12-20T23:50:44.418Z,65.78
2022-12-20T23:56:03.482Z,62.28
